sensor_id;sensor_type;location;lat;lon;timestamp;temperature;humidity
32334;DHT22;18810;53.040;8.850;2023-05-27T00:01:59;10.80;99.90
32334;DHT22;18810;53.040;8.850;2023-05-27T00:04:25;10.80;99.90
32334;DHT22;18810;53.040;8.850;2023-05-27T00:06:51;10.80;99.90
32334;DHT22;18810;53.040;8.850;2023-05-27T00:09:16;10.80;99.90
32334;DHT22;18810;53.040;8.850;2023-05-27T00:11:42;10.80;99.90
32334;DHT22;18810;53.040;8.850;2023-05-27T00:14:08;10.80;99.90
32334;DHT22;18810;53.040;8.850;2023-05-27T00:16:34;10.80;99.90
32334;DHT22;18810;53.040;8.850;2023-05-27T00:19:02;10.80;99.90
32334;DHT22;18810;53.040;8.850;2023-05-27T00:21:28;10.80;99.90
32334;DHT22;18810;53.040;8.850;2023-05-27T00:23:54;10.70;99.90
32334;DHT22;18810;53.040;8.850;2023-05-27T00:26:23;10.60;99.90
32334;DHT22;18810;53.040;8.850;2023-05-27T00:28:49;10.60;99.90
32334;DHT22;18810;53.040;8.850;2023-05-27T00:31:15;10.60;99.90
32334;DHT22;18810;53.040;8.850;2023-05-27T00:33:40;10.60;99.90
32334;DHT22;18810;53.040;8.850;2023-05-27T00:36:06;10.50;99.90
32334;DHT22;18810;53.040;8.850;2023-05-27T00:38:32;10.50;99.90
32334;DHT22;18810;53.040;8.850;2023-05-27T00:41:03;10.50;99.90
32334;DHT22;18810;53.040;8.850;2023-05-27T00:43:29;10.40;99.90
32334;DHT22;18810;53.040;8.850;2023-05-27T00:45:58;10.40;99.90
32334;DHT22;18810;53.040;8.850;2023-05-27T00:48:24;10.40;99.90
32334;DHT22;18810;53.040;8.850;2023-05-27T00:50:50;10.40;99.90
32334;DHT22;18810;53.040;8.850;2023-05-27T00:53:17;10.40;99.90
32334;DHT22;18810;53.040;8.850;2023-05-27T00:55:43;10.30;99.90
32334;DHT22;18810;53.040;8.850;2023-05-27T00:58:09;10.30;99.90
32334;DHT22;18810;53.040;8.850;2023-05-27T01:00:35;10.30;99.90
32334;DHT22;18810;53.040;8.850;2023-05-27T01:03:07;10.20;99.90
32334;DHT22;18810;53.040;8.850;2023-05-27T01:05:33;10.20;99.90
32334;DHT22;18810;53.040;8.850;2023-05-27T01:08:17;10.20;99.90
32334;DHT22;18810;53.040;8.850;2023-05-27T01:10:50;10.20;99.90
32334;DHT22;18810;53.040;8.850;2023-05-27T01:13:35;10.10;99.90
32334;DHT22;18810;53.040;8.850;2023-05-27T01:16:02;10.10;99.90
32334;DHT22;18810;53.040;8.850;2023-05-27T01:18:32;10.00;99.90
32334;DHT22;18810;53.040;8.850;2023-05-27T01:21:06;10.00;99.90
32334;DHT22;18810;53.040;8.850;2023-05-27T01:23:33;10.00;99.90
32334;DHT22;18810;53.040;8.850;2023-05-27T01:25:59;9.90;99.90
32334;DHT22;18810;53.040;8.850;2023-05-27T01:28:25;9.90;99.90
32334;DHT22;18810;53.040;8.850;2023-05-27T01:30:54;9.90;99.90
32334;DHT22;18810;53.040;8.850;2023-05-27T01:33:25;9.80;99.90
32334;DHT22;18810;53.040;8.850;2023-05-27T01:36:01;9.80;99.90
32334;DHT22;18810;53.040;8.850;2023-05-27T01:38:28;9.80;99.90
32334;DHT22;18810;53.040;8.850;2023-05-27T01:40:56;9.70;99.90
32334;DHT22;18810;53.040;8.850;2023-05-27T01:43:22;9.70;99.90
32334;DHT22;18810;53.040;8.850;2023-05-27T01:45:49;9.70;99.90
32334;DHT22;18810;53.040;8.850;2023-05-27T01:48:15;9.70;99.90
32334;DHT22;18810;53.040;8.850;2023-05-27T01:50:41;9.70;99.90
32334;DHT22;18810;53.040;8.850;2023-05-27T01:53:07;9.70;99.90
32334;DHT22;18810;53.040;8.850;2023-05-27T01:55:34;9.70;99.90
32334;DHT22;18810;53.040;8.850;2023-05-27T01:58:00;9.60;99.90
32334;DHT22;18810;53.040;8.850;2023-05-27T02:00:25;9.60;99.90
32334;DHT22;18810;53.040;8.850;2023-05-27T02:02:51;9.60;99.90
32334;DHT22;18810;53.040;8.850;2023-05-27T02:05:17;9.50;99.90
32334;DHT22;18810;53.040;8.850;2023-05-27T02:07:42;9.50;99.90
32334;DHT22;18810;53.040;8.850;2023-05-27T02:10:09;9.40;99.90
32334;DHT22;18810;53.040;8.850;2023-05-27T02:12:35;9.50;99.90
32334;DHT22;18810;53.040;8.850;2023-05-27T02:15:01;9.40;99.90
32334;DHT22;18810;53.040;8.850;2023-05-27T02:17:26;9.40;99.90
32334;DHT22;18810;53.040;8.850;2023-05-27T02:19:52;9.40;99.90
32334;DHT22;18810;53.040;8.850;2023-05-27T02:22:18;9.30;99.90
32334;DHT22;18810;53.040;8.850;2023-05-27T02:24:44;9.30;99.90
32334;DHT22;18810;53.040;8.850;2023-05-27T02:27:09;9.30;99.90
32334;DHT22;18810;53.040;8.850;2023-05-27T02:29:35;9.30;99.90
32334;DHT22;18810;53.040;8.850;2023-05-27T02:32:01;9.20;99.90
32334;DHT22;18810;53.040;8.850;2023-05-27T02:34:27;9.20;99.90
32334;DHT22;18810;53.040;8.850;2023-05-27T02:36:53;9.20;99.90
32334;DHT22;18810;53.040;8.850;2023-05-27T02:39:18;9.20;99.90
32334;DHT22;18810;53.040;8.850;2023-05-27T02:41:44;9.20;99.90
32334;DHT22;18810;53.040;8.850;2023-05-27T02:44:11;9.20;99.90
32334;DHT22;18810;53.040;8.850;2023-05-27T02:46:36;9.10;99.90
32334;DHT22;18810;53.040;8.850;2023-05-27T02:49:02;9.10;99.90
32334;DHT22;18810;53.040;8.850;2023-05-27T02:51:29;9.10;99.90
32334;DHT22;18810;53.040;8.850;2023-05-27T02:53:55;9.10;99.90
32334;DHT22;18810;53.040;8.850;2023-05-27T02:56:20;9.10;99.90
32334;DHT22;18810;53.040;8.850;2023-05-27T02:58:46;9.00;99.90
32334;DHT22;18810;53.040;8.850;2023-05-27T03:01:12;8.90;99.90
32334;DHT22;18810;53.040;8.850;2023-05-27T03:03:38;8.90;99.90
32334;DHT22;18810;53.040;8.850;2023-05-27T03:06:03;9.00;99.90
32334;DHT22;18810;53.040;8.850;2023-05-27T03:08:29;9.00;99.90
32334;DHT22;18810;53.040;8.850;2023-05-27T03:10:55;9.00;99.90
32334;DHT22;18810;53.040;8.850;2023-05-27T03:13:21;9.00;99.90
32334;DHT22;18810;53.040;8.850;2023-05-27T03:15:46;9.00;99.90
32334;DHT22;18810;53.040;8.850;2023-05-27T03:18:12;8.90;99.90
32334;DHT22;18810;53.040;8.850;2023-05-27T03:20:38;8.90;99.90
32334;DHT22;18810;53.040;8.850;2023-05-27T03:23:04;8.80;99.90
32334;DHT22;18810;53.040;8.850;2023-05-27T03:25:29;8.80;99.90
32334;DHT22;18810;53.040;8.850;2023-05-27T03:27:56;8.80;99.90
32334;DHT22;18810;53.040;8.850;2023-05-27T03:30:21;8.80;99.90
32334;DHT22;18810;53.040;8.850;2023-05-27T03:32:47;8.80;99.90
32334;DHT22;18810;53.040;8.850;2023-05-27T03:35:13;8.80;99.90
32334;DHT22;18810;53.040;8.850;2023-05-27T03:37:38;8.80;99.90
32334;DHT22;18810;53.040;8.850;2023-05-27T03:40:05;8.90;99.90
32334;DHT22;18810;53.040;8.850;2023-05-27T03:42:31;8.80;99.90
32334;DHT22;18810;53.040;8.850;2023-05-27T03:44:57;8.80;99.90
32334;DHT22;18810;53.040;8.850;2023-05-27T03:47:23;8.80;99.90
32334;DHT22;18810;53.040;8.850;2023-05-27T03:49:48;8.80;99.90
32334;DHT22;18810;53.040;8.850;2023-05-27T03:52:15;8.90;99.90
32334;DHT22;18810;53.040;8.850;2023-05-27T03:54:41;8.90;99.90
32334;DHT22;18810;53.040;8.850;2023-05-27T03:57:07;8.90;99.90
32334;DHT22;18810;53.040;8.850;2023-05-27T03:59:33;8.90;99.90
32334;DHT22;18810;53.040;8.850;2023-05-27T04:01:59;8.90;99.90
32334;DHT22;18810;53.040;8.850;2023-05-27T04:04:25;9.00;99.90
32334;DHT22;18810;53.040;8.850;2023-05-27T04:06:51;8.90;99.90
32334;DHT22;18810;53.040;8.850;2023-05-27T04:09:16;9.00;99.90
32334;DHT22;18810;53.040;8.850;2023-05-27T04:11:42;9.00;99.90
32334;DHT22;18810;53.040;8.850;2023-05-27T04:14:08;9.00;99.90
32334;DHT22;18810;53.040;8.850;2023-05-27T04:16:35;9.10;99.90
32334;DHT22;18810;53.040;8.850;2023-05-27T04:19:01;9.10;99.90
32334;DHT22;18810;53.040;8.850;2023-05-27T04:21:26;9.10;99.90
32334;DHT22;18810;53.040;8.850;2023-05-27T04:23:52;9.10;99.90
32334;DHT22;18810;53.040;8.850;2023-05-27T04:26:18;9.10;99.90
32334;DHT22;18810;53.040;8.850;2023-05-27T04:28:44;9.20;99.90
32334;DHT22;18810;53.040;8.850;2023-05-27T04:31:11;9.30;99.90
32334;DHT22;18810;53.040;8.850;2023-05-27T04:33:39;9.30;99.90
32334;DHT22;18810;53.040;8.850;2023-05-27T04:36:08;9.40;99.90
32334;DHT22;18810;53.040;8.850;2023-05-27T04:38:34;9.40;99.90
32334;DHT22;18810;53.040;8.850;2023-05-27T04:41:00;9.50;99.90
32334;DHT22;18810;53.040;8.850;2023-05-27T04:43:27;9.50;99.90
32334;DHT22;18810;53.040;8.850;2023-05-27T04:45:55;9.60;99.90
32334;DHT22;18810;53.040;8.850;2023-05-27T04:48:22;9.60;99.90
32334;DHT22;18810;53.040;8.850;2023-05-27T04:50:51;9.60;99.90
32334;DHT22;18810;53.040;8.850;2023-05-27T04:53:20;9.70;99.90
32334;DHT22;18810;53.040;8.850;2023-05-27T04:55:46;9.80;99.90
32334;DHT22;18810;53.040;8.850;2023-05-27T04:58:12;9.80;99.90
32334;DHT22;18810;53.040;8.850;2023-05-27T05:00:38;9.80;99.90
32334;DHT22;18810;53.040;8.850;2023-05-27T05:03:15;9.90;99.90
32334;DHT22;18810;53.040;8.850;2023-05-27T05:05:48;10.00;99.90
32334;DHT22;18810;53.040;8.850;2023-05-27T05:08:15;10.10;99.90
32334;DHT22;18810;53.040;8.850;2023-05-27T05:10:41;10.10;99.90
32334;DHT22;18810;53.040;8.850;2023-05-27T05:13:07;10.20;99.90
32334;DHT22;18810;53.040;8.850;2023-05-27T05:15:33;10.30;99.90
32334;DHT22;18810;53.040;8.850;2023-05-27T05:18:00;10.40;99.90
32334;DHT22;18810;53.040;8.850;2023-05-27T05:20:25;10.40;99.90
32334;DHT22;18810;53.040;8.850;2023-05-27T05:22:51;10.40;99.90
32334;DHT22;18810;53.040;8.850;2023-05-27T05:25:17;10.50;99.90
32334;DHT22;18810;53.040;8.850;2023-05-27T05:27:42;10.70;99.90
32334;DHT22;18810;53.040;8.850;2023-05-27T05:30:08;10.80;99.90
32334;DHT22;18810;53.040;8.850;2023-05-27T05:32:34;10.80;99.90
32334;DHT22;18810;53.040;8.850;2023-05-27T05:35:00;11.00;99.90
32334;DHT22;18810;53.040;8.850;2023-05-27T05:37:25;11.00;99.90
32334;DHT22;18810;53.040;8.850;2023-05-27T05:39:54;11.00;99.90
32334;DHT22;18810;53.040;8.850;2023-05-27T05:42:21;11.10;99.90
32334;DHT22;18810;53.040;8.850;2023-05-27T05:44:47;11.10;99.90
32334;DHT22;18810;53.040;8.850;2023-05-27T05:47:13;11.20;99.90
32334;DHT22;18810;53.040;8.850;2023-05-27T05:49:38;11.30;99.90
32334;DHT22;18810;53.040;8.850;2023-05-27T05:52:04;11.40;99.90
32334;DHT22;18810;53.040;8.850;2023-05-27T05:54:30;11.50;99.90
32334;DHT22;18810;53.040;8.850;2023-05-27T05:56:56;11.60;99.90
32334;DHT22;18810;53.040;8.850;2023-05-27T05:59:21;11.70;99.90
32334;DHT22;18810;53.040;8.850;2023-05-27T06:01:47;11.80;99.90
32334;DHT22;18810;53.040;8.850;2023-05-27T06:04:13;11.90;99.90
32334;DHT22;18810;53.040;8.850;2023-05-27T06:06:38;12.10;99.90
32334;DHT22;18810;53.040;8.850;2023-05-27T06:09:05;12.30;99.90
32334;DHT22;18810;53.040;8.850;2023-05-27T06:11:31;12.50;99.90
32334;DHT22;18810;53.040;8.850;2023-05-27T06:13:57;12.70;99.90
32334;DHT22;18810;53.040;8.850;2023-05-27T06:16:22;12.90;99.90
32334;DHT22;18810;53.040;8.850;2023-05-27T06:18:48;13.30;99.90
32334;DHT22;18810;53.040;8.850;2023-05-27T06:21:14;13.60;99.90
32334;DHT22;18810;53.040;8.850;2023-05-27T06:23:39;14.00;99.90
32334;DHT22;18810;53.040;8.850;2023-05-27T06:26:05;14.50;99.90
32334;DHT22;18810;53.040;8.850;2023-05-27T06:28:31;15.20;99.90
32334;DHT22;18810;53.040;8.850;2023-05-27T06:30:57;16.20;99.90
32334;DHT22;18810;53.040;8.850;2023-05-27T06:33:22;17.50;99.90
32334;DHT22;18810;53.040;8.850;2023-05-27T06:35:48;19.00;99.90
32334;DHT22;18810;53.040;8.850;2023-05-27T06:38:14;20.20;99.90
32334;DHT22;18810;53.040;8.850;2023-05-27T06:40:40;21.50;99.60
32334;DHT22;18810;53.040;8.850;2023-05-27T06:43:06;22.50;96.80
32334;DHT22;18810;53.040;8.850;2023-05-27T06:45:34;22.80;95.10
32334;DHT22;18810;53.040;8.850;2023-05-27T06:48:00;22.60;94.60
32334;DHT22;18810;53.040;8.850;2023-05-27T06:50:25;22.30;94.70
32334;DHT22;18810;53.040;8.850;2023-05-27T06:52:51;22.10;94.70
32334;DHT22;18810;53.040;8.850;2023-05-27T06:55:18;21.50;95.00
32334;DHT22;18810;53.040;8.850;2023-05-27T06:57:43;20.50;95.60
32334;DHT22;18810;53.040;8.850;2023-05-27T07:00:09;19.20;97.30
32334;DHT22;18810;53.040;8.850;2023-05-27T07:02:35;18.20;99.30
32334;DHT22;18810;53.040;8.850;2023-05-27T07:05:01;17.30;99.90
32334;DHT22;18810;53.040;8.850;2023-05-27T07:07:27;16.70;99.90
32334;DHT22;18810;53.040;8.850;2023-05-27T07:09:52;16.40;99.90
32334;DHT22;18810;53.040;8.850;2023-05-27T07:12:19;16.20;99.90
32334;DHT22;18810;53.040;8.850;2023-05-27T07:14:45;16.10;99.90
32334;DHT22;18810;53.040;8.850;2023-05-27T07:17:11;16.20;99.90
32334;DHT22;18810;53.040;8.850;2023-05-27T07:19:37;16.20;99.90
32334;DHT22;18810;53.040;8.850;2023-05-27T07:22:03;16.20;99.90
32334;DHT22;18810;53.040;8.850;2023-05-27T07:24:29;16.10;99.90
32334;DHT22;18810;53.040;8.850;2023-05-27T07:26:54;16.20;99.90
32334;DHT22;18810;53.040;8.850;2023-05-27T07:29:20;16.20;99.90
32334;DHT22;18810;53.040;8.850;2023-05-27T07:31:46;16.30;99.90
32334;DHT22;18810;53.040;8.850;2023-05-27T07:34:12;16.50;99.90
32334;DHT22;18810;53.040;8.850;2023-05-27T07:36:38;16.90;99.90
32334;DHT22;18810;53.040;8.850;2023-05-27T07:39:04;17.80;99.90
32334;DHT22;18810;53.040;8.850;2023-05-27T07:41:29;18.60;99.90
32334;DHT22;18810;53.040;8.850;2023-05-27T07:43:56;19.10;99.90
32334;DHT22;18810;53.040;8.850;2023-05-27T07:46:22;19.50;99.90
32334;DHT22;18810;53.040;8.850;2023-05-27T07:48:48;20.40;99.90
32334;DHT22;18810;53.040;8.850;2023-05-27T07:51:13;21.40;98.80
32334;DHT22;18810;53.040;8.850;2023-05-27T07:53:39;22.10;96.80
32334;DHT22;18810;53.040;8.850;2023-05-27T07:56:05;22.20;96.40
32334;DHT22;18810;53.040;8.850;2023-05-27T07:58:31;22.60;95.80
32334;DHT22;18810;53.040;8.850;2023-05-27T08:00:56;23.20;95.70
32334;DHT22;18810;53.040;8.850;2023-05-27T08:03:22;23.60;94.30
32334;DHT22;18810;53.040;8.850;2023-05-27T08:05:48;24.10;93.50
32334;DHT22;18810;53.040;8.850;2023-05-27T08:08:14;24.80;92.50
32334;DHT22;18810;53.040;8.850;2023-05-27T08:10:40;25.00;91.80
32334;DHT22;18810;53.040;8.850;2023-05-27T08:13:06;25.30;91.90
32334;DHT22;18810;53.040;8.850;2023-05-27T08:15:31;25.60;91.40
32334;DHT22;18810;53.040;8.850;2023-05-27T08:17:57;25.90;90.90
32334;DHT22;18810;53.040;8.850;2023-05-27T08:20:23;25.50;90.50
32334;DHT22;18810;53.040;8.850;2023-05-27T08:22:49;25.70;90.00
32334;DHT22;18810;53.040;8.850;2023-05-27T08:25:14;26.20;90.00
32334;DHT22;18810;53.040;8.850;2023-05-27T08:27:49;26.50;87.70
32334;DHT22;18810;53.040;8.850;2023-05-27T08:30:15;26.90;87.30
32334;DHT22;18810;53.040;8.850;2023-05-27T08:32:41;26.90;85.60
32334;DHT22;18810;53.040;8.850;2023-05-27T08:35:08;26.90;85.20
32334;DHT22;18810;53.040;8.850;2023-05-27T08:37:34;26.70;84.10
32334;DHT22;18810;53.040;8.850;2023-05-27T08:40:00;26.20;84.70
32334;DHT22;18810;53.040;8.850;2023-05-27T08:42:26;25.90;85.20
32334;DHT22;18810;53.040;8.850;2023-05-27T08:44:52;25.30;86.30
32334;DHT22;18810;53.040;8.850;2023-05-27T08:47:18;25.00;85.90
32334;DHT22;18810;53.040;8.850;2023-05-27T08:49:44;24.40;87.10
32334;DHT22;18810;53.040;8.850;2023-05-27T08:52:12;24.50;88.30
32334;DHT22;18810;53.040;8.850;2023-05-27T08:54:40;25.30;87.50
32334;DHT22;18810;53.040;8.850;2023-05-27T08:57:07;25.80;85.10
32334;DHT22;18810;53.040;8.850;2023-05-27T08:59:35;25.80;83.90
32334;DHT22;18810;53.040;8.850;2023-05-27T09:02:02;25.90;84.30
32334;DHT22;18810;53.040;8.850;2023-05-27T09:04:31;25.80;83.90
32334;DHT22;18810;53.040;8.850;2023-05-27T09:06:57;26.10;83.00
32334;DHT22;18810;53.040;8.850;2023-05-27T09:09:22;26.60;81.10
32334;DHT22;18810;53.040;8.850;2023-05-27T09:11:48;27.30;80.30
32334;DHT22;18810;53.040;8.850;2023-05-27T09:14:23;27.40;78.00
32334;DHT22;18810;53.040;8.850;2023-05-27T09:16:49;27.60;76.90
32334;DHT22;18810;53.040;8.850;2023-05-27T09:19:19;27.60;77.40
32334;DHT22;18810;53.040;8.850;2023-05-27T09:21:45;27.50;76.70
32334;DHT22;18810;53.040;8.850;2023-05-27T09:24:11;27.90;73.80
32334;DHT22;18810;53.040;8.850;2023-05-27T09:26:37;28.30;72.90
32334;DHT22;18810;53.040;8.850;2023-05-27T09:29:07;28.30;71.20
32334;DHT22;18810;53.040;8.850;2023-05-27T09:31:41;28.30;70.10
32334;DHT22;18810;53.040;8.850;2023-05-27T09:34:16;28.60;70.60
32334;DHT22;18810;53.040;8.850;2023-05-27T09:36:44;28.40;68.60
32334;DHT22;18810;53.040;8.850;2023-05-27T09:39:10;27.60;70.90
32334;DHT22;18810;53.040;8.850;2023-05-27T09:41:38;28.30;70.20
32334;DHT22;18810;53.040;8.850;2023-05-27T09:44:08;28.20;69.00
32334;DHT22;18810;53.040;8.850;2023-05-27T09:46:34;27.70;69.80
32334;DHT22;18810;53.040;8.850;2023-05-27T09:49:00;27.70;70.00
32334;DHT22;18810;53.040;8.850;2023-05-27T09:51:27;27.80;68.50
32334;DHT22;18810;53.040;8.850;2023-05-27T09:53:54;28.30;67.70
32334;DHT22;18810;53.040;8.850;2023-05-27T09:56:24;28.50;68.10
32334;DHT22;18810;53.040;8.850;2023-05-27T09:58:55;28.60;67.70
32334;DHT22;18810;53.040;8.850;2023-05-27T10:01:25;29.10;69.20
32334;DHT22;18810;53.040;8.850;2023-05-27T10:03:54;28.90;67.50
32334;DHT22;18810;53.040;8.850;2023-05-27T10:06:20;28.40;68.50
32334;DHT22;18810;53.040;8.850;2023-05-27T10:08:47;28.10;68.50
32334;DHT22;18810;53.040;8.850;2023-05-27T10:11:13;27.80;70.70
32334;DHT22;18810;53.040;8.850;2023-05-27T10:13:39;27.90;71.10
32334;DHT22;18810;53.040;8.850;2023-05-27T10:16:05;28.70;69.50
32334;DHT22;18810;53.040;8.850;2023-05-27T10:18:32;29.00;67.60
32334;DHT22;18810;53.040;8.850;2023-05-27T10:21:03;28.90;66.50
32334;DHT22;18810;53.040;8.850;2023-05-27T10:23:30;28.80;68.20
32334;DHT22;18810;53.040;8.850;2023-05-27T10:26:07;29.00;67.10
32334;DHT22;18810;53.040;8.850;2023-05-27T10:31:11;30.20;65.50
32334;DHT22;18810;53.040;8.850;2023-05-27T10:33:49;29.00;63.80
32334;DHT22;18810;53.040;8.850;2023-05-27T10:36:26;28.90;65.00
32334;DHT22;18810;53.040;8.850;2023-05-27T10:39:04;28.50;66.30
32334;DHT22;18810;53.040;8.850;2023-05-27T10:41:44;28.70;66.40
32334;DHT22;18810;53.040;8.850;2023-05-27T10:44:13;28.90;66.10
32334;DHT22;18810;53.040;8.850;2023-05-27T10:46:41;29.60;65.80
32334;DHT22;18810;53.040;8.850;2023-05-27T10:49:15;29.30;64.90
32334;DHT22;18810;53.040;8.850;2023-05-27T10:51:48;28.50;66.20
32334;DHT22;18810;53.040;8.850;2023-05-27T10:54:15;28.20;65.70
32334;DHT22;18810;53.040;8.850;2023-05-27T10:56:51;28.20;67.40
32334;DHT22;18810;53.040;8.850;2023-05-27T10:59:21;29.20;65.80
32334;DHT22;18810;53.040;8.850;2023-05-27T11:01:51;29.10;63.60
32334;DHT22;18810;53.040;8.850;2023-05-27T11:04:20;28.30;65.20
32334;DHT22;18810;53.040;8.850;2023-05-27T11:06:59;28.70;65.50
32334;DHT22;18810;53.040;8.850;2023-05-27T11:09:25;29.10;65.20
32334;DHT22;18810;53.040;8.850;2023-05-27T11:11:52;29.90;64.80
32334;DHT22;18810;53.040;8.850;2023-05-27T11:14:17;30.30;62.90
32334;DHT22;18810;53.040;8.850;2023-05-27T11:16:49;30.30;63.30
32334;DHT22;18810;53.040;8.850;2023-05-27T11:19:20;30.90;62.80
32334;DHT22;18810;53.040;8.850;2023-05-27T11:21:47;30.90;60.70
32334;DHT22;18810;53.040;8.850;2023-05-27T11:24:19;30.30;62.00
32334;DHT22;18810;53.040;8.850;2023-05-27T11:26:46;30.30;61.70
32334;DHT22;18810;53.040;8.850;2023-05-27T11:29:15;30.50;60.70
32334;DHT22;18810;53.040;8.850;2023-05-27T11:31:45;30.60;62.20
32334;DHT22;18810;53.040;8.850;2023-05-27T11:34:13;31.40;60.10
32334;DHT22;18810;53.040;8.850;2023-05-27T11:36:44;31.60;60.20
32334;DHT22;18810;53.040;8.850;2023-05-27T11:39:14;32.30;59.80
32334;DHT22;18810;53.040;8.850;2023-05-27T11:41:50;31.90;58.10
32334;DHT22;18810;53.040;8.850;2023-05-27T11:44:18;31.90;58.50
32334;DHT22;18810;53.040;8.850;2023-05-27T11:46:45;32.10;58.20
32334;DHT22;18810;53.040;8.850;2023-05-27T11:49:13;32.40;56.90
32334;DHT22;18810;53.040;8.850;2023-05-27T11:51:49;32.70;57.90
32334;DHT22;18810;53.040;8.850;2023-05-27T11:54:31;33.20;56.40
32334;DHT22;18810;53.040;8.850;2023-05-27T11:56:57;33.40;56.80
32334;DHT22;18810;53.040;8.850;2023-05-27T11:59:25;33.20;55.40
32334;DHT22;18810;53.040;8.850;2023-05-27T12:01:52;32.20;55.50
32334;DHT22;18810;53.040;8.850;2023-05-27T12:04:21;32.10;56.80
32334;DHT22;18810;53.040;8.850;2023-05-27T12:06:46;32.80;56.60
32334;DHT22;18810;53.040;8.850;2023-05-27T12:09:13;33.40;56.10
32334;DHT22;18810;53.040;8.850;2023-05-27T12:11:40;34.00;55.30
32334;DHT22;18810;53.040;8.850;2023-05-27T12:14:06;34.40;53.90
32334;DHT22;18810;53.040;8.850;2023-05-27T12:16:32;34.50;53.30
32334;DHT22;18810;53.040;8.850;2023-05-27T12:18:58;33.90;53.10
32334;DHT22;18810;53.040;8.850;2023-05-27T12:21:25;33.30;54.20
32334;DHT22;18810;53.040;8.850;2023-05-27T12:23:51;33.20;53.80
32334;DHT22;18810;53.040;8.850;2023-05-27T12:26:17;33.10;55.50
32334;DHT22;18810;53.040;8.850;2023-05-27T12:28:43;33.60;56.30
32334;DHT22;18810;53.040;8.850;2023-05-27T12:31:09;33.50;53.40
32334;DHT22;18810;53.040;8.850;2023-05-27T12:33:35;32.60;54.00
32334;DHT22;18810;53.040;8.850;2023-05-27T12:36:02;32.00;53.70
32334;DHT22;18810;53.040;8.850;2023-05-27T12:38:28;31.90;54.10
32334;DHT22;18810;53.040;8.850;2023-05-27T12:40:54;31.80;54.40
32334;DHT22;18810;53.040;8.850;2023-05-27T12:43:22;32.30;54.70
32334;DHT22;18810;53.040;8.850;2023-05-27T12:45:48;32.10;54.50
32334;DHT22;18810;53.040;8.850;2023-05-27T12:48:14;31.80;55.50
32334;DHT22;18810;53.040;8.850;2023-05-27T12:50:40;32.30;55.00
32334;DHT22;18810;53.040;8.850;2023-05-27T12:53:08;31.30;55.60
32334;DHT22;18810;53.040;8.850;2023-05-27T12:55:34;30.80;56.80
32334;DHT22;18810;53.040;8.850;2023-05-27T12:58:01;30.30;56.60
32334;DHT22;18810;53.040;8.850;2023-05-27T13:00:27;30.40;57.20
32334;DHT22;18810;53.040;8.850;2023-05-27T13:02:53;30.80;57.20
32334;DHT22;18810;53.040;8.850;2023-05-27T13:05:18;30.50;57.50
32334;DHT22;18810;53.040;8.850;2023-05-27T13:08:02;30.80;56.90
32334;DHT22;18810;53.040;8.850;2023-05-27T13:10:28;31.00;57.00
32334;DHT22;18810;53.040;8.850;2023-05-27T13:12:55;31.70;56.00
32334;DHT22;18810;53.040;8.850;2023-05-27T13:15:21;32.70;55.80
32334;DHT22;18810;53.040;8.850;2023-05-27T13:17:48;33.50;54.90
32334;DHT22;18810;53.040;8.850;2023-05-27T13:20:14;33.80;54.30
32334;DHT22;18810;53.040;8.850;2023-05-27T13:22:42;33.70;53.20
32334;DHT22;18810;53.040;8.850;2023-05-27T13:25:08;33.50;53.10
32334;DHT22;18810;53.040;8.850;2023-05-27T13:27:34;33.30;53.20
32334;DHT22;18810;53.040;8.850;2023-05-27T13:29:59;33.30;53.20
32334;DHT22;18810;53.040;8.850;2023-05-27T13:32:25;32.80;53.20
32334;DHT22;18810;53.040;8.850;2023-05-27T13:34:51;32.50;54.20
32334;DHT22;18810;53.040;8.850;2023-05-27T13:37:17;33.30;53.00
32334;DHT22;18810;53.040;8.850;2023-05-27T13:39:43;34.00;52.30
32334;DHT22;18810;53.040;8.850;2023-05-27T13:42:09;34.70;52.60
32334;DHT22;18810;53.040;8.850;2023-05-27T13:44:36;34.60;50.70
32334;DHT22;18810;53.040;8.850;2023-05-27T13:47:01;34.40;51.10
32334;DHT22;18810;53.040;8.850;2023-05-27T13:49:27;34.40;50.60
32334;DHT22;18810;53.040;8.850;2023-05-27T13:51:53;34.60;50.60
32334;DHT22;18810;53.040;8.850;2023-05-27T13:54:19;34.80;51.20
32334;DHT22;18810;53.040;8.850;2023-05-27T13:56:45;35.10;50.70
32334;DHT22;18810;53.040;8.850;2023-05-27T13:59:11;34.80;50.90
32334;DHT22;18810;53.040;8.850;2023-05-27T14:01:39;35.10;50.20
32334;DHT22;18810;53.040;8.850;2023-05-27T14:04:04;34.30;50.10
32334;DHT22;18810;53.040;8.850;2023-05-27T14:06:30;33.30;51.50
32334;DHT22;18810;53.040;8.850;2023-05-27T14:08:56;33.20;51.80
32334;DHT22;18810;53.040;8.850;2023-05-27T14:11:22;33.70;50.80
32334;DHT22;18810;53.040;8.850;2023-05-27T14:13:48;34.00;51.30
32334;DHT22;18810;53.040;8.850;2023-05-27T14:16:14;34.40;51.30
32334;DHT22;18810;53.040;8.850;2023-05-27T14:18:40;34.20;50.70
32334;DHT22;18810;53.040;8.850;2023-05-27T14:21:07;34.10;51.00
32334;DHT22;18810;53.040;8.850;2023-05-27T14:23:33;33.60;50.70
32334;DHT22;18810;53.040;8.850;2023-05-27T14:25:59;33.10;51.30
32334;DHT22;18810;53.040;8.850;2023-05-27T14:28:24;32.90;51.80
32334;DHT22;18810;53.040;8.850;2023-05-27T14:30:50;32.90;52.30
32334;DHT22;18810;53.040;8.850;2023-05-27T14:33:16;33.20;51.70
32334;DHT22;18810;53.040;8.850;2023-05-27T14:35:42;33.60;51.30
32334;DHT22;18810;53.040;8.850;2023-05-27T14:38:10;34.20;50.80
32334;DHT22;18810;53.040;8.850;2023-05-27T14:40:38;34.30;50.30
32334;DHT22;18810;53.040;8.850;2023-05-27T14:43:04;34.70;50.20
32334;DHT22;18810;53.040;8.850;2023-05-27T14:45:30;34.10;50.40
32334;DHT22;18810;53.040;8.850;2023-05-27T14:47:55;33.40;51.60
32334;DHT22;18810;53.040;8.850;2023-05-27T14:50:23;32.90;52.50
32334;DHT22;18810;53.040;8.850;2023-05-27T14:52:49;32.70;52.00
32334;DHT22;18810;53.040;8.850;2023-05-27T14:55:16;32.90;51.50
32334;DHT22;18810;53.040;8.850;2023-05-27T14:57:41;33.20;51.80
32334;DHT22;18810;53.040;8.850;2023-05-27T15:00:08;33.50;51.80
32334;DHT22;18810;53.040;8.850;2023-05-27T15:02:35;33.90;51.20
32334;DHT22;18810;53.040;8.850;2023-05-27T15:05:03;34.10;51.40
32334;DHT22;18810;53.040;8.850;2023-05-27T15:07:32;33.80;51.60
32334;DHT22;18810;53.040;8.850;2023-05-27T15:09:58;33.40;50.30
32334;DHT22;18810;53.040;8.850;2023-05-27T15:12:24;33.30;50.80
32334;DHT22;18810;53.040;8.850;2023-05-27T15:14:50;33.30;51.60
32334;DHT22;18810;53.040;8.850;2023-05-27T15:17:16;33.60;51.10
32334;DHT22;18810;53.040;8.850;2023-05-27T15:19:42;34.00;50.90
32334;DHT22;18810;53.040;8.850;2023-05-27T15:22:07;34.10;50.20
32334;DHT22;18810;53.040;8.850;2023-05-27T15:24:33;34.50;50.60
32334;DHT22;18810;53.040;8.850;2023-05-27T15:27:00;33.90;50.10
32334;DHT22;18810;53.040;8.850;2023-05-27T15:29:28;32.90;51.10
32334;DHT22;18810;53.040;8.850;2023-05-27T15:31:54;32.90;52.00
32334;DHT22;18810;53.040;8.850;2023-05-27T15:34:20;32.80;51.60
32334;DHT22;18810;53.040;8.850;2023-05-27T15:36:46;32.50;51.50